sensor_id;sensor_type;location;lat;lon;timestamp;temperature;humidity
5136;DHT22;2586;48.710;9.202;2023-02-25T00:01:09;3.80;1.00
5136;DHT22;2586;48.710;9.202;2023-02-25T00:03:35;3.90;1.00
5136;DHT22;2586;48.710;9.202;2023-02-25T00:06:02;3.90;1.00
5136;DHT22;2586;48.710;9.202;2023-02-25T00:08:28;3.80;1.00
5136;DHT22;2586;48.710;9.202;2023-02-25T00:11:02;3.80;1.00
5136;DHT22;2586;48.710;9.202;2023-02-25T00:13:29;3.70;1.00
5136;DHT22;2586;48.710;9.202;2023-02-25T00:15:55;3.60;1.00
5136;DHT22;2586;48.710;9.202;2023-02-25T00:18:24;3.60;1.00
5136;DHT22;2586;48.710;9.202;2023-02-25T00:20:50;3.60;1.00
5136;DHT22;2586;48.710;9.202;2023-02-25T00:23:15;3.60;1.00
5136;DHT22;2586;48.710;9.202;2023-02-25T00:25:41;3.60;1.00
5136;DHT22;2586;48.710;9.202;2023-02-25T00:28:06;3.60;3.10
5136;DHT22;2586;48.710;9.202;2023-02-25T00:30:33;3.60;1.00
5136;DHT22;2586;48.710;9.202;2023-02-25T00:32:59;3.60;1.00
5136;DHT22;2586;48.710;9.202;2023-02-25T00:35:25;3.60;9.10
5136;DHT22;2586;48.710;9.202;2023-02-25T00:37:51;3.70;50.00
5136;DHT22;2586;48.710;9.202;2023-02-25T00:40:17;3.60;38.40
5136;DHT22;2586;48.710;9.202;2023-02-25T00:42:43;3.70;44.50
5136;DHT22;2586;48.710;9.202;2023-02-25T00:45:10;3.60;4.80
5136;DHT22;2586;48.710;9.202;2023-02-25T00:47:36;3.60;12.10
5136;DHT22;2586;48.710;9.202;2023-02-25T00:50:03;3.60;36.90
5136;DHT22;2586;48.710;9.202;2023-02-25T00:52:29;3.60;6.60
5136;DHT22;2586;48.710;9.202;2023-02-25T00:54:54;3.60;40.90
5136;DHT22;2586;48.710;9.202;2023-02-25T00:57:20;3.70;83.00
5136;DHT22;2586;48.710;9.202;2023-02-25T00:59:45;3.70;84.30
5136;DHT22;2586;48.710;9.202;2023-02-25T01:02:11;3.70;34.70
5136;DHT22;2586;48.710;9.202;2023-02-25T01:04:36;3.70;24.70
5136;DHT22;2586;48.710;9.202;2023-02-25T01:07:02;3.60;1.00
5136;DHT22;2586;48.710;9.202;2023-02-25T01:09:27;3.60;12.60
5136;DHT22;2586;48.710;9.202;2023-02-25T01:11:53;3.60;17.30
5136;DHT22;2586;48.710;9.202;2023-02-25T01:14:21;3.70;36.50
5136;DHT22;2586;48.710;9.202;2023-02-25T01:16:48;3.70;1.00
5136;DHT22;2586;48.710;9.202;2023-02-25T01:19:25;3.80;1.00
5136;DHT22;2586;48.710;9.202;2023-02-25T01:21:56;3.80;1.00
5136;DHT22;2586;48.710;9.202;2023-02-25T01:24:27;3.80;1.00
5136;DHT22;2586;48.710;9.202;2023-02-25T01:26:56;3.90;1.00
5136;DHT22;2586;48.710;9.202;2023-02-25T01:29:27;3.90;1.00
5136;DHT22;2586;48.710;9.202;2023-02-25T01:31:55;4.00;99.90
5136;DHT22;2586;48.710;9.202;2023-02-25T01:34:21;4.00;99.90
5136;DHT22;2586;48.710;9.202;2023-02-25T01:36:47;3.90;99.90
5136;DHT22;2586;48.710;9.202;2023-02-25T01:39:15;3.80;1.00
5136;DHT22;2586;48.710;9.202;2023-02-25T01:41:41;3.80;99.90
5136;DHT22;2586;48.710;9.202;2023-02-25T01:44:17;3.70;1.00
5136;DHT22;2586;48.710;9.202;2023-02-25T01:46:48;3.70;1.00
5136;DHT22;2586;48.710;9.202;2023-02-25T01:49:21;3.70;84.60
5136;DHT22;2586;48.710;9.202;2023-02-25T01:51:51;3.70;1.00
5136;DHT22;2586;48.710;9.202;2023-02-25T01:54:19;3.80;99.90
5136;DHT22;2586;48.710;9.202;2023-02-25T01:56:51;3.70;1.00
5136;DHT22;2586;48.710;9.202;2023-02-25T01:59:20;3.70;99.90
5136;DHT22;2586;48.710;9.202;2023-02-25T02:01:47;3.80;99.90
5136;DHT22;2586;48.710;9.202;2023-02-25T02:04:14;3.70;99.90
5136;DHT22;2586;48.710;9.202;2023-02-25T02:06:43;3.70;99.90
5136;DHT22;2586;48.710;9.202;2023-02-25T02:09:13;3.70;99.90
5136;DHT22;2586;48.710;9.202;2023-02-25T02:11:39;3.70;99.90
5136;DHT22;2586;48.710;9.202;2023-02-25T02:14:08;3.50;99.90
5136;DHT22;2586;48.710;9.202;2023-02-25T02:22:23;3.50;99.90
5136;DHT22;2586;48.710;9.202;2023-02-25T02:28:12;3.60;1.00
5136;DHT22;2586;48.710;9.202;2023-02-25T02:36:40;3.50;99.90
5136;DHT22;2586;48.710;9.202;2023-02-25T02:42:30;3.50;59.90
5136;DHT22;2586;48.710;9.202;2023-02-25T02:45:08;3.50;1.00
5136;DHT22;2586;48.710;9.202;2023-02-25T02:47:38;3.50;1.00
5136;DHT22;2586;48.710;9.202;2023-02-25T02:50:11;3.50;1.00
5136;DHT22;2586;48.710;9.202;2023-02-25T02:52:41;3.50;69.60
5136;DHT22;2586;48.710;9.202;2023-02-25T02:55:17;3.50;1.00
5136;DHT22;2586;48.710;9.202;2023-02-25T02:57:47;3.50;1.00
5136;DHT22;2586;48.710;9.202;2023-02-25T03:00:17;3.50;99.90
5136;DHT22;2586;48.710;9.202;2023-02-25T03:02:49;3.50;1.00
5136;DHT22;2586;48.710;9.202;2023-02-25T03:05:17;3.60;99.90
5136;DHT22;2586;48.710;9.202;2023-02-25T03:07:52;3.50;1.00
5136;DHT22;2586;48.710;9.202;2023-02-25T03:10:20;3.50;99.90
5136;DHT22;2586;48.710;9.202;2023-02-25T03:12:47;3.40;99.90
5136;DHT22;2586;48.710;9.202;2023-02-25T03:15:13;3.40;1.00
5136;DHT22;2586;48.710;9.202;2023-02-25T03:17:42;3.50;1.00
5136;DHT22;2586;48.710;9.202;2023-02-25T03:20:17;3.50;42.20
5136;DHT22;2586;48.710;9.202;2023-02-25T03:22:45;3.40;77.10
5136;DHT22;2586;48.710;9.202;2023-02-25T03:25:13;3.40;1.00
5136;DHT22;2586;48.710;9.202;2023-02-25T03:27:44;3.40;1.00
5136;DHT22;2586;48.710;9.202;2023-02-25T03:30:34;3.40;1.00
5136;DHT22;2586;48.710;9.202;2023-02-25T03:33:40;3.40;1.00
5136;DHT22;2586;48.710;9.202;2023-02-25T03:36:36;3.40;1.00
5136;DHT22;2586;48.710;9.202;2023-02-25T03:39:07;3.40;1.00
5136;DHT22;2586;48.710;9.202;2023-02-25T03:41:37;3.40;1.00
5136;DHT22;2586;48.710;9.202;2023-02-25T03:44:07;3.40;1.00
5136;DHT22;2586;48.710;9.202;2023-02-25T03:46:36;3.40;99.90
5136;DHT22;2586;48.710;9.202;2023-02-25T03:49:03;3.40;99.90
5136;DHT22;2586;48.710;9.202;2023-02-25T03:51:34;3.40;1.00
5136;DHT22;2586;48.710;9.202;2023-02-25T03:54:00;3.40;99.90
5136;DHT22;2586;48.710;9.202;2023-02-25T03:56:26;3.40;99.90
5136;DHT22;2586;48.710;9.202;2023-02-25T03:58:52;3.30;1.00
5136;DHT22;2586;48.710;9.202;2023-02-25T04:01:25;3.30;99.90
5136;DHT22;2586;48.710;9.202;2023-02-25T04:03:51;3.40;99.90
5136;DHT22;2586;48.710;9.202;2023-02-25T04:06:20;3.40;99.90
5136;DHT22;2586;48.710;9.202;2023-02-25T04:08:47;3.30;1.00
5136;DHT22;2586;48.710;9.202;2023-02-25T04:11:13;3.30;99.90
5136;DHT22;2586;48.710;9.202;2023-02-25T04:13:38;3.30;1.00
5136;DHT22;2586;48.710;9.202;2023-02-25T04:16:04;3.30;99.90
5136;DHT22;2586;48.710;9.202;2023-02-25T04:18:30;3.20;1.00
5136;DHT22;2586;48.710;9.202;2023-02-25T04:20:56;3.20;1.00
5136;DHT22;2586;48.710;9.202;2023-02-25T04:23:21;3.20;99.40
5136;DHT22;2586;48.710;9.202;2023-02-25T04:25:47;3.20;99.90
5136;DHT22;2586;48.710;9.202;2023-02-25T04:28:12;3.20;99.90
5136;DHT22;2586;48.710;9.202;2023-02-25T04:30:38;3.20;99.90
5136;DHT22;2586;48.710;9.202;2023-02-25T04:33:04;3.20;99.90
5136;DHT22;2586;48.710;9.202;2023-02-25T04:35:29;3.20;66.00
5136;DHT22;2586;48.710;9.202;2023-02-25T04:37:55;3.20;99.90
5136;DHT22;2586;48.710;9.202;2023-02-25T04:40:22;3.20;2.40
5136;DHT22;2586;48.710;9.202;2023-02-25T04:42:50;3.20;1.00
5136;DHT22;2586;48.710;9.202;2023-02-25T04:45:15;3.20;1.00
5136;DHT22;2586;48.710;9.202;2023-02-25T04:47:41;3.20;1.00
5136;DHT22;2586;48.710;9.202;2023-02-25T04:50:09;3.20;99.90
5136;DHT22;2586;48.710;9.202;2023-02-25T04:52:35;3.10;43.10
5136;DHT22;2586;48.710;9.202;2023-02-25T04:55:01;3.10;1.00
5136;DHT22;2586;48.710;9.202;2023-02-25T04:57:27;3.20;88.30
5136;DHT22;2586;48.710;9.202;2023-02-25T04:59:52;3.10;1.00
5136;DHT22;2586;48.710;9.202;2023-02-25T05:02:18;3.10;1.00
5136;DHT22;2586;48.710;9.202;2023-02-25T05:04:44;3.00;1.00
5136;DHT22;2586;48.710;9.202;2023-02-25T05:07:10;3.10;99.90
5136;DHT22;2586;48.710;9.202;2023-02-25T05:09:35;3.00;99.90
5136;DHT22;2586;48.710;9.202;2023-02-25T05:12:01;3.00;99.90
5136;DHT22;2586;48.710;9.202;2023-02-25T05:14:27;3.00;99.90
5136;DHT22;2586;48.710;9.202;2023-02-25T05:16:53;3.00;1.00
5136;DHT22;2586;48.710;9.202;2023-02-25T05:19:21;3.10;1.00
5136;DHT22;2586;48.710;9.202;2023-02-25T05:21:48;3.10;1.00
5136;DHT22;2586;48.710;9.202;2023-02-25T05:24:14;3.00;1.00
5136;DHT22;2586;48.710;9.202;2023-02-25T05:26:39;3.00;99.90
5136;DHT22;2586;48.710;9.202;2023-02-25T05:29:05;3.00;99.90
5136;DHT22;2586;48.710;9.202;2023-02-25T05:31:31;3.00;1.00
5136;DHT22;2586;48.710;9.202;2023-02-25T05:33:56;3.00;1.00
5136;DHT22;2586;48.710;9.202;2023-02-25T05:36:22;3.00;99.90
5136;DHT22;2586;48.710;9.202;2023-02-25T05:38:48;3.00;40.60
5136;DHT22;2586;48.710;9.202;2023-02-25T05:41:17;3.00;99.90
5136;DHT22;2586;48.710;9.202;2023-02-25T05:43:42;2.90;99.90
5136;DHT22;2586;48.710;9.202;2023-02-25T05:46:11;2.90;99.90
5136;DHT22;2586;48.710;9.202;2023-02-25T05:48:39;2.90;99.90
5136;DHT22;2586;48.710;9.202;2023-02-25T05:51:08;2.90;74.40
5136;DHT22;2586;48.710;9.202;2023-02-25T05:53:35;2.90;99.90
5136;DHT22;2586;48.710;9.202;2023-02-25T05:56:05;2.90;99.90
5136;DHT22;2586;48.710;9.202;2023-02-25T05:58:32;2.90;1.00
5136;DHT22;2586;48.710;9.202;2023-02-25T06:00:58;2.90;1.00
5136;DHT22;2586;48.710;9.202;2023-02-25T06:03:24;2.90;1.00
5136;DHT22;2586;48.710;9.202;2023-02-25T06:05:49;3.00;1.00
5136;DHT22;2586;48.710;9.202;2023-02-25T06:08:17;2.90;1.00
5136;DHT22;2586;48.710;9.202;2023-02-25T06:10:43;2.90;1.00
5136;DHT22;2586;48.710;9.202;2023-02-25T06:13:10;3.00;1.00
5136;DHT22;2586;48.710;9.202;2023-02-25T06:15:40;2.90;1.00
5136;DHT22;2586;48.710;9.202;2023-02-25T06:18:05;2.90;99.90
5136;DHT22;2586;48.710;9.202;2023-02-25T06:20:31;2.90;1.00
5136;DHT22;2586;48.710;9.202;2023-02-25T06:22:57;2.90;1.00
5136;DHT22;2586;48.710;9.202;2023-02-25T06:25:23;2.90;1.00
5136;DHT22;2586;48.710;9.202;2023-02-25T06:27:57;3.00;1.00
5136;DHT22;2586;48.710;9.202;2023-02-25T06:30:23;3.00;1.00
5136;DHT22;2586;48.710;9.202;2023-02-25T06:32:49;2.90;1.00
5136;DHT22;2586;48.710;9.202;2023-02-25T06:35:15;2.90;1.00
5136;DHT22;2586;48.710;9.202;2023-02-25T06:37:40;2.80;1.00
5136;DHT22;2586;48.710;9.202;2023-02-25T06:40:06;2.80;99.90
5136;DHT22;2586;48.710;9.202;2023-02-25T06:42:32;2.90;99.90
5136;DHT22;2586;48.710;9.202;2023-02-25T06:44:58;2.80;1.00
5136;DHT22;2586;48.710;9.202;2023-02-25T06:47:24;2.80;1.00
5136;DHT22;2586;48.710;9.202;2023-02-25T06:49:49;2.80;1.00
5136;DHT22;2586;48.710;9.202;2023-02-25T06:52:15;2.80;99.90
5136;DHT22;2586;48.710;9.202;2023-02-25T06:54:40;2.80;1.00
5136;DHT22;2586;48.710;9.202;2023-02-25T06:57:06;2.80;1.00
5136;DHT22;2586;48.710;9.202;2023-02-25T06:59:31;2.80;1.00
5136;DHT22;2586;48.710;9.202;2023-02-25T07:02:00;2.90;1.00
5136;DHT22;2586;48.710;9.202;2023-02-25T07:04:25;2.90;1.00
5136;DHT22;2586;48.710;9.202;2023-02-25T07:06:51;3.10;1.00
5136;DHT22;2586;48.710;9.202;2023-02-25T07:09:16;3.10;99.90
5136;DHT22;2586;48.710;9.202;2023-02-25T07:11:42;3.10;1.00
5136;DHT22;2586;48.710;9.202;2023-02-25T07:14:07;3.20;99.90
5136;DHT22;2586;48.710;9.202;2023-02-25T07:16:33;3.10;74.20
5136;DHT22;2586;48.710;9.202;2023-02-25T07:18:59;3.10;1.00
5136;DHT22;2586;48.710;9.202;2023-02-25T07:21:27;3.10;86.40
5136;DHT22;2586;48.710;9.202;2023-02-25T07:23:55;3.10;99.90
5136;DHT22;2586;48.710;9.202;2023-02-25T07:26:21;3.10;2.20
5136;DHT22;2586;48.710;9.202;2023-02-25T07:28:46;3.30;1.00
5136;DHT22;2586;48.710;9.202;2023-02-25T07:31:17;3.40;1.00
5136;DHT22;2586;48.710;9.202;2023-02-25T07:33:43;3.50;1.00
5136;DHT22;2586;48.710;9.202;2023-02-25T07:36:10;3.50;1.00
5136;DHT22;2586;48.710;9.202;2023-02-25T07:38:37;3.40;1.00
5136;DHT22;2586;48.710;9.202;2023-02-25T07:41:11;3.30;1.00
5136;DHT22;2586;48.710;9.202;2023-02-25T07:43:37;3.30;1.00
5136;DHT22;2586;48.710;9.202;2023-02-25T07:46:03;3.50;1.00
5136;DHT22;2586;48.710;9.202;2023-02-25T07:48:29;3.50;99.90
5136;DHT22;2586;48.710;9.202;2023-02-25T07:50:55;3.70;99.90
5136;DHT22;2586;48.710;9.202;2023-02-25T07:53:21;4.00;1.00
5136;DHT22;2586;48.710;9.202;2023-02-25T07:55:48;4.20;1.00
5136;DHT22;2586;48.710;9.202;2023-02-25T07:58:14;4.30;1.00
5136;DHT22;2586;48.710;9.202;2023-02-25T08:00:40;4.60;1.00
5136;DHT22;2586;48.710;9.202;2023-02-25T08:03:06;4.80;99.90
5136;DHT22;2586;48.710;9.202;2023-02-25T08:05:33;5.00;99.90
5136;DHT22;2586;48.710;9.202;2023-02-25T08:07:59;5.20;99.90
5136;DHT22;2586;48.710;9.202;2023-02-25T08:10:24;5.00;99.90
5136;DHT22;2586;48.710;9.202;2023-02-25T08:12:50;4.90;99.90
5136;DHT22;2586;48.710;9.202;2023-02-25T08:15:16;4.90;99.90
5136;DHT22;2586;48.710;9.202;2023-02-25T08:17:41;4.80;99.90
5136;DHT22;2586;48.710;9.202;2023-02-25T08:20:08;4.70;99.90
5136;DHT22;2586;48.710;9.202;2023-02-25T08:22:34;4.40;99.90
5136;DHT22;2586;48.710;9.202;2023-02-25T08:24:59;4.60;99.90
5136;DHT22;2586;48.710;9.202;2023-02-25T08:27:25;5.10;99.90
5136;DHT22;2586;48.710;9.202;2023-02-25T08:29:51;5.10;99.90
5136;DHT22;2586;48.710;9.202;2023-02-25T08:32:17;5.60;99.90
5136;DHT22;2586;48.710;9.202;2023-02-25T08:34:43;5.50;99.90
5136;DHT22;2586;48.710;9.202;2023-02-25T08:37:10;5.80;99.90
5136;DHT22;2586;48.710;9.202;2023-02-25T08:39:36;5.50;99.90
5136;DHT22;2586;48.710;9.202;2023-02-25T08:42:02;5.20;99.90
5136;DHT22;2586;48.710;9.202;2023-02-25T08:44:28;4.90;99.90
5136;DHT22;2586;48.710;9.202;2023-02-25T08:46:53;4.90;99.90
5136;DHT22;2586;48.710;9.202;2023-02-25T08:49:19;4.80;99.90
5136;DHT22;2586;48.710;9.202;2023-02-25T08:51:44;4.60;99.90
5136;DHT22;2586;48.710;9.202;2023-02-25T08:54:12;4.70;99.90
5136;DHT22;2586;48.710;9.202;2023-02-25T08:56:39;4.70;99.90
5136;DHT22;2586;48.710;9.202;2023-02-25T08:59:13;4.80;99.90
5136;DHT22;2586;48.710;9.202;2023-02-25T09:01:39;4.80;99.90
5136;DHT22;2586;48.710;9.202;2023-02-25T09:04:14;4.80;99.90
5136;DHT22;2586;48.710;9.202;2023-02-25T09:06:40;4.70;99.90
5136;DHT22;2586;48.710;9.202;2023-02-25T09:09:06;4.50;99.90
5136;DHT22;2586;48.710;9.202;2023-02-25T09:11:32;4.40;99.90
5136;DHT22;2586;48.710;9.202;2023-02-25T09:13:58;4.30;99.90
5136;DHT22;2586;48.710;9.202;2023-02-25T09:16:23;4.30;99.90
5136;DHT22;2586;48.710;9.202;2023-02-25T09:18:51;4.20;99.90
5136;DHT22;2586;48.710;9.202;2023-02-25T09:21:18;4.20;99.90
5136;DHT22;2586;48.710;9.202;2023-02-25T09:23:44;4.30;99.90
5136;DHT22;2586;48.710;9.202;2023-02-25T09:26:11;4.40;99.90
5136;DHT22;2586;48.710;9.202;2023-02-25T09:28:37;4.60;99.90
5136;DHT22;2586;48.710;9.202;2023-02-25T09:31:03;4.80;99.90
5136;DHT22;2586;48.710;9.202;2023-02-25T09:33:32;4.80;99.90
5136;DHT22;2586;48.710;9.202;2023-02-25T09:36:13;4.70;99.90
5136;DHT22;2586;48.710;9.202;2023-02-25T09:38:41;4.60;99.90
5136;DHT22;2586;48.710;9.202;2023-02-25T09:44:03;4.70;99.90
5136;DHT22;2586;48.710;9.202;2023-02-25T09:46:34;4.90;99.90
5136;DHT22;2586;48.710;9.202;2023-02-25T09:49:12;4.90;99.90
5136;DHT22;2586;48.710;9.202;2023-02-25T09:51:43;4.90;99.90
5136;DHT22;2586;48.710;9.202;2023-02-25T09:54:26;4.80;99.90
5136;DHT22;2586;48.710;9.202;2023-02-25T09:56:55;4.90;99.90
5136;DHT22;2586;48.710;9.202;2023-02-25T09:59:25;5.70;99.90
5136;DHT22;2586;48.710;9.202;2023-02-25T10:13:24;6.00;28.60
5136;DHT22;2586;48.710;9.202;2023-02-25T10:24:32;5.90;42.40
5136;DHT22;2586;48.710;9.202;2023-02-25T10:27:18;5.80;43.00
5136;DHT22;2586;48.710;9.202;2023-02-25T10:29:48;5.70;41.50
5136;DHT22;2586;48.710;9.202;2023-02-25T10:32:22;5.50;48.50
5136;DHT22;2586;48.710;9.202;2023-02-25T10:34:57;5.40;50.40
5136;DHT22;2586;48.710;9.202;2023-02-25T10:37:28;5.30;53.50
5136;DHT22;2586;48.710;9.202;2023-02-25T10:39:57;5.20;45.30
5136;DHT22;2586;48.710;9.202;2023-02-25T10:42:23;5.10;47.30
5136;DHT22;2586;48.710;9.202;2023-02-25T10:44:49;5.10;43.50
5136;DHT22;2586;48.710;9.202;2023-02-25T10:47:25;5.20;48.70
5136;DHT22;2586;48.710;9.202;2023-02-25T10:50:21;5.20;43.30
5136;DHT22;2586;48.710;9.202;2023-02-25T10:53:14;5.50;59.10
5136;DHT22;2586;48.710;9.202;2023-02-25T11:04:00;5.40;56.00
5136;DHT22;2586;48.710;9.202;2023-02-25T11:06:35;5.40;57.00
5136;DHT22;2586;48.710;9.202;2023-02-25T11:09:04;5.20;54.20
5136;DHT22;2586;48.710;9.202;2023-02-25T11:11:32;5.20;61.90
5136;DHT22;2586;48.710;9.202;2023-02-25T11:16:26;5.40;77.50
5136;DHT22;2586;48.710;9.202;2023-02-25T11:18:56;5.50;84.20
5136;DHT22;2586;48.710;9.202;2023-02-25T11:21:34;5.50;58.70
5136;DHT22;2586;48.710;9.202;2023-02-25T11:24:04;5.30;53.10
5136;DHT22;2586;48.710;9.202;2023-02-25T11:26:36;5.30;55.00
5136;DHT22;2586;48.710;9.202;2023-02-25T11:29:12;5.40;50.50
5136;DHT22;2586;48.710;9.202;2023-02-25T11:31:39;5.40;48.30
5136;DHT22;2586;48.710;9.202;2023-02-25T11:34:19;5.30;44.80
5136;DHT22;2586;48.710;9.202;2023-02-25T11:36:45;5.50;55.30
5136;DHT22;2586;48.710;9.202;2023-02-25T11:41:43;6.50;71.40
5136;DHT22;2586;48.710;9.202;2023-02-25T11:47:31;6.40;43.60
5136;DHT22;2586;48.710;9.202;2023-02-25T11:53:14;6.20;52.50
5136;DHT22;2586;48.710;9.202;2023-02-25T12:03:09;5.40;84.60
5136;DHT22;2586;48.710;9.202;2023-02-25T12:08:34;5.20;74.00
5136;DHT22;2586;48.710;9.202;2023-02-25T12:11:15;5.10;71.50
5136;DHT22;2586;48.710;9.202;2023-02-25T12:16:55;5.00;77.90
5136;DHT22;2586;48.710;9.202;2023-02-25T12:30:54;5.10;96.40
5136;DHT22;2586;48.710;9.202;2023-02-25T12:33:31;5.10;89.60
5136;DHT22;2586;48.710;9.202;2023-02-25T12:41:54;5.40;91.90
5136;DHT22;2586;48.710;9.202;2023-02-25T12:55:35;4.90;99.90
5136;DHT22;2586;48.710;9.202;2023-02-25T13:25:15;4.50;1.00
5136;DHT22;2586;48.710;9.202;2023-02-25T13:30:58;4.40;1.00
5136;DHT22;2586;48.710;9.202;2023-02-25T13:44:59;4.20;99.90
5136;DHT22;2586;48.710;9.202;2023-02-25T13:50:34;4.10;1.00
5136;DHT22;2586;48.710;9.202;2023-02-25T13:53:10;4.00;73.30
5136;DHT22;2586;48.710;9.202;2023-02-25T14:02:10;4.80;1.00
5136;DHT22;2586;48.710;9.202;2023-02-25T14:20:58;5.40;99.90
5136;DHT22;2586;48.710;9.202;2023-02-25T14:26:43;5.70;99.90
5136;DHT22;2586;48.710;9.202;2023-02-25T14:35:35;9.30;28.50
5136;DHT22;2586;48.710;9.202;2023-02-25T14:48:47;11.60;1.00
5136;DHT22;2586;48.710;9.202;2023-02-25T15:05:42;6.00;14.50
5136;DHT22;2586;48.710;9.202;2023-02-25T15:08:29;5.90;12.20
5136;DHT22;2586;48.710;9.202;2023-02-25T15:21:40;5.30;23.10
5136;DHT22;2586;48.710;9.202;2023-02-25T15:24:34;5.40;29.10
5136;DHT22;2586;48.710;9.202;2023-02-25T15:26:57;5.40;31.90
5136;DHT22;2586;48.710;9.202;2023-02-25T15:32:26;5.50;31.80
5136;DHT22;2586;48.710;9.202;2023-02-25T15:35:01;6.20;22.00
5136;DHT22;2586;48.710;9.202;2023-02-25T15:37:31;6.40;18.70
5136;DHT22;2586;48.710;9.202;2023-02-25T15:40:00;6.50;16.90
5136;DHT22;2586;48.710;9.202;2023-02-25T15:42:54;7.10;17.20
5136;DHT22;2586;48.710;9.202;2023-02-25T16:09:04;4.90;24.90
5136;DHT22;2586;48.710;9.202;2023-02-25T16:11:37;4.70;29.20
5136;DHT22;2586;48.710;9.202;2023-02-25T16:14:30;4.70;38.10
5136;DHT22;2586;48.710;9.202;2023-02-25T16:17:04;4.70;41.80
5136;DHT22;2586;48.710;9.202;2023-02-25T16:19:34;4.50;47.90
5136;DHT22;2586;48.710;9.202;2023-02-25T16:22:22;4.60;79.60
5136;DHT22;2586;48.710;9.202;2023-02-25T16:24:51;4.50;66.80
5136;DHT22;2586;48.710;9.202;2023-02-25T16:27:43;4.50;97.80
5136;DHT22;2586;48.710;9.202;2023-02-25T16:33:19;4.20;99.90
5136;DHT22;2586;48.710;9.202;2023-02-25T16:36:07;4.00;1.00
5136;DHT22;2586;48.710;9.202;2023-02-25T16:38:54;3.80;99.90
5136;DHT22;2586;48.710;9.202;2023-02-25T16:41:21;3.60;1.00
5136;DHT22;2586;48.710;9.202;2023-02-25T16:43:47;3.50;99.90
5136;DHT22;2586;48.710;9.202;2023-02-25T16:46:21;3.50;99.90
5136;DHT22;2586;48.710;9.202;2023-02-25T16:49:02;3.40;99.90
5136;DHT22;2586;48.710;9.202;2023-02-25T16:51:37;3.40;1.00
5136;DHT22;2586;48.710;9.202;2023-02-25T16:54:13;3.30;1.00
5136;DHT22;2586;48.710;9.202;2023-02-25T16:56:42;3.30;99.90
5136;DHT22;2586;48.710;9.202;2023-02-25T17:01:36;3.10;99.90
5136;DHT22;2586;48.710;9.202;2023-02-25T17:04:15;3.10;99.90
5136;DHT22;2586;48.710;9.202;2023-02-25T17:06:48;3.00;99.90
5136;DHT22;2586;48.710;9.202;2023-02-25T17:09:28;3.00;99.90
5136;DHT22;2586;48.710;9.202;2023-02-25T17:11:54;3.10;99.90
5136;DHT22;2586;48.710;9.202;2023-02-25T17:14:21;3.00;1.00
5136;DHT22;2586;48.710;9.202;2023-02-25T17:16:47;3.00;99.90
5136;DHT22;2586;48.710;9.202;2023-02-25T17:19:16;3.00;1.00
5136;DHT22;2586;48.710;9.202;2023-02-25T17:21:44;3.00;1.00
5136;DHT22;2586;48.710;9.202;2023-02-25T17:24:17;3.00;1.00
5136;DHT22;2586;48.710;9.202;2023-02-25T17:26:45;3.00;1.00
5136;DHT22;2586;48.710;9.202;2023-02-25T17:29:13;2.90;99.90
5136;DHT22;2586;48.710;9.202;2023-02-25T17:31:49;3.00;99.90
5136;DHT22;2586;48.710;9.202;2023-02-25T17:34:30;2.90;99.90
5136;DHT22;2586;48.710;9.202;2023-02-25T17:36:58;2.80;99.90
5136;DHT22;2586;48.710;9.202;2023-02-25T17:39:25;2.80;99.90
5136;DHT22;2586;48.710;9.202;2023-02-25T17:41:53;2.80;99.90
5136;DHT22;2586;48.710;9.202;2023-02-25T17:44:48;2.80;99.90
5136;DHT22;2586;48.710;9.202;2023-02-25T17:47:25;2.80;1.00
5136;DHT22;2586;48.710;9.202;2023-02-25T17:49:51;2.80;99.90
5136;DHT22;2586;48.710;9.202;2023-02-25T17:52:23;2.90;99.90
5136;DHT22;2586;48.710;9.202;2023-02-25T17:54:58;2.80;99.90
5136;DHT22;2586;48.710;9.202;2023-02-25T17:57:26;2.50;1.00
5136;DHT22;2586;48.710;9.202;2023-02-25T18:00:20;2.10;1.00
5136;DHT22;2586;48.710;9.202;2023-02-25T18:02:46;1.90;1.00
5136;DHT22;2586;48.710;9.202;2023-02-25T18:12:47;1.30;1.00
5136;DHT22;2586;48.710;9.202;2023-02-25T18:15:17;1.20;99.90
5136;DHT22;2586;48.710;9.202;2023-02-25T18:17:48;1.20;99.90
5136;DHT22;2586;48.710;9.202;2023-02-25T18:20:32;1.10;99.90
5136;DHT22;2586;48.710;9.202;2023-02-25T18:23:03;1.10;1.00
5136;DHT22;2586;48.710;9.202;2023-02-25T18:25:40;1.10;1.00
5136;DHT22;2586;48.710;9.202;2023-02-25T18:28:12;1.00;1.00
5136;DHT22;2586;48.710;9.202;2023-02-25T18:30:39;1.10;1.00
5136;DHT22;2586;48.710;9.202;2023-02-25T18:33:04;1.10;99.90
5136;DHT22;2586;48.710;9.202;2023-02-25T18:35:31;1.10;99.90
5136;DHT22;2586;48.710;9.202;2023-02-25T18:37:58;1.00;99.90
5136;DHT22;2586;48.710;9.202;2023-02-25T18:40:28;1.00;99.90
5136;DHT22;2586;48.710;9.202;2023-02-25T18:42:54;1.00;1.00
5136;DHT22;2586;48.710;9.202;2023-02-25T18:45:22;1.00;1.00
5136;DHT22;2586;48.710;9.202;2023-02-25T18:47:48;1.00;1.00
5136;DHT22;2586;48.710;9.202;2023-02-25T18:50:15;1.10;49.80
5136;DHT22;2586;48.710;9.202;2023-02-25T18:52:41;1.10;1.00
5136;DHT22;2586;48.710;9.202;2023-02-25T18:55:08;1.20;1.00
5136;DHT22;2586;48.710;9.202;2023-02-25T18:57:38;1.10;99.90
5136;DHT22;2586;48.710;9.202;2023-02-25T19:00:04;1.20;99.90
5136;DHT22;2586;48.710;9.202;2023-02-25T19:02:32;1.20;99.90
5136;DHT22;2586;48.710;9.202;2023-02-25T19:04:59;1.20;99.90
5136;DHT22;2586;48.710;9.202;2023-02-25T19:07:28;1.20;1.00
5136;DHT22;2586;48.710;9.202;2023-02-25T19:09:55;1.10;1.00
5136;DHT22;2586;48.710;9.202;2023-02-25T19:12:25;1.20;1.00
5136;DHT22;2586;48.710;9.202;2023-02-25T19:14:56;1.10;99.90
5136;DHT22;2586;48.710;9.202;2023-02-25T19:17:24;1.10;99.90
5136;DHT22;2586;48.710;9.202;2023-02-25T19:19:49;1.10;99.90
5136;DHT22;2586;48.710;9.202;2023-02-25T19:22:15;1.10;99.90
5136;DHT22;2586;48.710;9.202;2023-02-25T19:24:46;1.10;99.90
5136;DHT22;2586;48.710;9.202;2023-02-25T19:27:24;1.00;71.90
5136;DHT22;2586;48.710;9.202;2023-02-25T19:29:53;1.10;99.90
5136;DHT22;2586;48.710;9.202;2023-02-25T19:32:19;1.10;99.90
5136;DHT22;2586;48.710;9.202;2023-02-25T19:34:45;1.00;99.90
5136;DHT22;2586;48.710;9.202;2023-02-25T19:37:12;1.10;99.90
5136;DHT22;2586;48.710;9.202;2023-02-25T19:39:38;1.10;99.90
5136;DHT22;2586;48.710;9.202;2023-02-25T19:42:04;1.10;58.70
5136;DHT22;2586;48.710;9.202;2023-02-25T19:44:31;1.00;1.00
5136;DHT22;2586;48.710;9.202;2023-02-25T19:46:57;1.10;77.60
5136;DHT22;2586;48.710;9.202;2023-02-25T19:49:23;1.00;4.10
5136;DHT22;2586;48.710;9.202;2023-02-25T19:51:49;1.10;1.00
5136;DHT22;2586;48.710;9.202;2023-02-25T19:54:18;1.10;99.90
5136;DHT22;2586;48.710;9.202;2023-02-25T19:56:44;1.10;99.90
5136;DHT22;2586;48.710;9.202;2023-02-25T19:59:09;1.20;99.90
5136;DHT22;2586;48.710;9.202;2023-02-25T20:01:36;1.20;38.90
5136;DHT22;2586;48.710;9.202;2023-02-25T20:04:03;1.10;1.00
5136;DHT22;2586;48.710;9.202;2023-02-25T20:06:28;1.10;1.00
5136;DHT22;2586;48.710;9.202;2023-02-25T20:09:00;1.20;1.00
5136;DHT22;2586;48.710;9.202;2023-02-25T20:11:26;1.10;1.00
5136;DHT22;2586;48.710;9.202;2023-02-25T20:13:51;1.10;99.90
5136;DHT22;2586;48.710;9.202;2023-02-25T20:16:17;1.10;1.00
5136;DHT22;2586;48.710;9.202;2023-02-25T20:18:46;1.20;7.20
5136;DHT22;2586;48.710;9.202;2023-02-25T20:21:12;1.20;1.00
5136;DHT22;2586;48.710;9.202;2023-02-25T20:23:37;1.20;1.00
5136;DHT22;2586;48.710;9.202;2023-02-25T20:26:08;1.20;1.00
5136;DHT22;2586;48.710;9.202;2023-02-25T20:28:35;1.30;1.00
5136;DHT22;2586;48.710;9.202;2023-02-25T20:31:09;1.20;99.90
5136;DHT22;2586;48.710;9.202;2023-02-25T20:33:36;1.20;99.90
5136;DHT22;2586;48.710;9.202;2023-02-25T20:36:12;1.20;99.90
5136;DHT22;2586;48.710;9.202;2023-02-25T20:38:51;1.20;1.00
5136;DHT22;2586;48.710;9.202;2023-02-25T20:41:19;1.20;99.90
5136;DHT22;2586;48.710;9.202;2023-02-25T20:43:44;1.20;1.00
5136;DHT22;2586;48.710;9.202;2023-02-25T20:46:27;1.20;1.00
5136;DHT22;2586;48.710;9.202;2023-02-25T20:48:54;1.20;1.00
5136;DHT22;2586;48.710;9.202;2023-02-25T20:51:20;1.10;1.00
5136;DHT22;2586;48.710;9.202;2023-02-25T20:53:46;1.10;99.90